createdAt,value
2017-03-08T00:00:02.739Z,21.4
2017-03-08T00:01:11.532Z,21.39
2017-03-08T00:02:20.750Z,21.37
2017-03-08T00:03:29.533Z,21.42
2017-03-08T00:04:39.099Z,21.36
2017-03-08T00:05:48.275Z,21.36
2017-03-08T00:06:57.048Z,21.37
2017-03-08T00:08:06.222Z,21.27
2017-03-08T00:09:15.401Z,21.32
2017-03-08T00:10:24.586Z,21.37
2017-03-08T00:11:34.123Z,21.39
2017-03-08T00:12:42.898Z,21.29
2017-03-08T00:13:51.707Z,21.3
2017-03-08T00:15:00.935Z,21.33
2017-03-08T00:16:10.144Z,21.32
2017-03-08T00:17:19.339Z,21.25
2017-03-08T00:18:28.537Z,21.29
2017-03-08T00:19:37.722Z,21.25
2017-03-08T00:20:46.538Z,21.22
2017-03-08T00:21:55.752Z,21.21
2017-03-08T00:23:04.937Z,21.25
2017-03-08T00:24:13.734Z,21.3
2017-03-08T00:25:22.944Z,21.22
2017-03-08T00:26:31.711Z,21.25
2017-03-08T00:27:40.857Z,21.24
2017-03-08T00:28:50.013Z,21.3
2017-03-08T00:29:59.168Z,21.24
2017-03-08T00:31:08.737Z,21.29
2017-03-08T00:32:17.922Z,21.21
2017-03-08T00:33:26.726Z,21.2
2017-03-08T00:34:35.925Z,21.21
2017-03-08T00:35:44.751Z,21.22
2017-03-08T00:36:53.963Z,21.22
2017-03-08T00:38:03.127Z,21.29
2017-03-08T00:39:12.674Z,21.2
2017-03-08T00:40:21.838Z,21.21
2017-03-08T00:41:30.639Z,21.2
2017-03-08T00:42:40.227Z,21.2
2017-03-08T00:43:49.404Z,21.18
2017-03-08T00:44:58.207Z,21.21
2017-03-08T00:46:07.403Z,21.21
2017-03-08T00:47:16.217Z,21.15
2017-03-08T00:48:25.033Z,21.17
2017-03-08T00:49:34.248Z,21.14
2017-03-08T00:50:43.040Z,21.2
2017-03-08T00:51:51.815Z,21.12
2017-03-08T00:53:00.596Z,21.18
2017-03-08T00:54:10.128Z,21.14
2017-03-08T00:55:18.923Z,21.07
2017-03-08T00:56:28.136Z,21.14
2017-03-08T00:57:37.336Z,21.14
2017-03-08T00:58:46.132Z,21.17
2017-03-08T00:59:55.712Z,21.09
2017-03-08T01:01:05.306Z,21.07
2017-03-08T01:02:14.516Z,21.17
2017-03-08T01:03:23.697Z,21.07
2017-03-08T01:04:32.860Z,21.12
2017-03-08T01:05:42.435Z,21.09
2017-03-08T01:06:51.965Z,21.17
2017-03-08T01:08:00.718Z,21.06
2017-03-08T01:09:09.881Z,21.06
2017-03-08T01:10:19.814Z,21.09
2017-03-08T01:11:29.011Z,21.03
2017-03-08T01:12:38.549Z,21.05
2017-03-08T01:13:47.707Z,21.12
2017-03-08T01:14:57.281Z,21.06
2017-03-08T01:16:06.433Z,21.03
2017-03-08T01:17:15.599Z,20.99
2017-03-08T01:18:24.778Z,20.96
2017-03-08T01:19:33.609Z,21
2017-03-08T01:20:42.837Z,21.06
2017-03-08T01:21:52.442Z,20.99
2017-03-08T01:23:01.255Z,21.02
2017-03-08T01:24:10.089Z,20.99
2017-03-08T01:25:19.224Z,20.96
2017-03-08T01:26:28.027Z,20.99
2017-03-08T01:27:36.813Z,20.99
2017-03-08T01:28:46.020Z,21
2017-03-08T01:29:54.808Z,20.9
2017-03-08T01:31:03.583Z,20.87
2017-03-08T01:32:12.723Z,20.97
2017-03-08T01:33:21.512Z,20.93
2017-03-08T01:34:30.711Z,20.9
2017-03-08T01:35:40.319Z,21.02
2017-03-08T01:36:49.874Z,20.96
2017-03-08T01:37:59.064Z,20.93
2017-03-08T01:39:08.216Z,20.95
2017-03-08T01:40:16.975Z,20.87
2017-03-08T01:41:26.565Z,20.96
2017-03-08T01:42:35.380Z,20.96
2017-03-08T01:43:44.185Z,20.92
2017-03-08T01:44:53.000Z,20.93
2017-03-08T01:46:02.211Z,20.93
2017-03-08T01:47:11.805Z,20.9
2017-03-08T01:48:20.631Z,20.88
2017-03-08T01:49:29.427Z,20.87
2017-03-08T01:50:38.234Z,20.95
2017-03-08T01:51:47.387Z,20.85
2017-03-08T01:52:56.164Z,20.84
2017-03-08T01:54:04.988Z,20.81
2017-03-08T01:55:13.789Z,20.78
2017-03-08T01:56:22.607Z,20.82
2017-03-08T01:57:32.182Z,20.82
2017-03-08T01:58:41.388Z,20.77
2017-03-08T01:59:50.185Z,20.81
2017-03-08T02:00:59.006Z,20.81
2017-03-08T02:02:07.826Z,20.74
2017-03-08T02:03:17.005Z,20.88
2017-03-08T02:04:26.571Z,20.8
2017-03-08T02:05:35.364Z,20.84
2017-03-08T02:06:44.553Z,20.8
2017-03-08T02:07:54.143Z,20.81
2017-03-08T02:09:02.963Z,20.85
2017-03-08T02:10:11.761Z,20.81
2017-03-08T02:11:20.999Z,20.75
2017-03-08T02:12:30.181Z,20.74
2017-03-08T02:13:39.034Z,20.7
2017-03-08T02:14:47.831Z,20.77
2017-03-08T02:15:57.320Z,20.69
2017-03-08T02:17:06.540Z,20.78
2017-03-08T02:18:15.349Z,20.72
2017-03-08T02:19:25.322Z,20.75
2017-03-08T02:20:34.136Z,20.7
2017-03-08T02:21:42.914Z,20.75
2017-03-08T02:22:51.704Z,20.63
2017-03-08T02:24:00.899Z,20.65
2017-03-08T02:25:09.671Z,20.75
2017-03-08T02:26:18.440Z,20.65
2017-03-08T02:27:27.222Z,20.75
2017-03-08T02:28:36.359Z,20.66
2017-03-08T02:29:45.123Z,20.74
2017-03-08T02:30:54.319Z,20.66
2017-03-08T02:32:03.506Z,20.63
2017-03-08T02:33:12.683Z,20.7
2017-03-08T02:34:21.857Z,20.7
2017-03-08T02:35:31.006Z,20.67
2017-03-08T02:36:40.197Z,20.67
2017-03-08T02:37:49.387Z,20.69
2017-03-08T02:38:58.170Z,20.66
2017-03-08T02:40:06.974Z,20.65
2017-03-08T02:41:16.153Z,20.65
2017-03-08T02:42:24.955Z,20.63
2017-03-08T02:43:33.733Z,20.58
2017-03-08T02:44:43.277Z,20.6
2017-03-08T02:45:52.475Z,20.63
2017-03-08T02:47:01.277Z,20.66
2017-03-08T02:48:10.070Z,20.56
2017-03-08T02:49:20.038Z,20.62
2017-03-08T02:50:29.614Z,20.63
2017-03-08T02:51:38.415Z,20.56
2017-03-08T02:52:47.230Z,20.56
2017-03-08T02:53:56.424Z,20.59
2017-03-08T02:55:05.221Z,20.58
2017-03-08T02:56:14.024Z,20.59
2017-03-08T02:57:22.828Z,20.5
2017-03-08T02:58:31.637Z,20.58
2017-03-08T02:59:40.869Z,20.65
2017-03-08T03:00:50.447Z,20.58
2017-03-08T03:02:00.145Z,20.63
2017-03-08T03:03:09.355Z,20.52
2017-03-08T03:04:18.936Z,20.63
2017-03-08T03:05:28.116Z,20.63
2017-03-08T03:06:37.307Z,20.62
2017-03-08T03:07:46.110Z,20.6
2017-03-08T03:08:55.297Z,20.55
2017-03-08T03:10:05.286Z,20.5
2017-03-08T03:11:14.092Z,20.48
2017-03-08T03:12:22.884Z,20.51
2017-03-08T03:13:31.660Z,20.47
2017-03-08T03:14:40.434Z,20.5
2017-03-08T03:15:50.020Z,20.5
2017-03-08T03:16:59.222Z,20.48
2017-03-08T03:18:08.420Z,20.47
2017-03-08T03:19:17.604Z,20.44
2017-03-08T03:20:26.417Z,20.47
2017-03-08T03:21:36.003Z,20.48
2017-03-08T03:22:45.585Z,20.47
2017-03-08T03:23:54.768Z,20.4
2017-03-08T03:25:03.586Z,20.43
2017-03-08T03:26:13.163Z,20.47
2017-03-08T03:27:21.943Z,20.47
2017-03-08T03:28:31.500Z,20.41
2017-03-08T03:29:40.256Z,20.41
2017-03-08T03:30:49.421Z,20.44
2017-03-08T03:31:58.442Z,20.34
2017-03-08T03:33:07.639Z,20.41
2017-03-08T03:34:16.413Z,20.4
2017-03-08T03:35:25.205Z,20.4
2017-03-08T03:36:34.016Z,20.37
2017-03-08T03:37:42.825Z,20.4
2017-03-08T03:38:52.804Z,20.4
2017-03-08T03:40:02.161Z,20.41
2017-03-08T03:41:10.926Z,20.41
2017-03-08T03:42:20.149Z,20.31
2017-03-08T03:43:29.714Z,20.29
2017-03-08T03:44:38.912Z,20.4
2017-03-08T03:45:48.481Z,20.4
2017-03-08T03:46:57.309Z,20.31
2017-03-08T03:48:06.514Z,20.29
2017-03-08T03:49:16.080Z,20.32
2017-03-08T03:50:24.898Z,20.36
2017-03-08T03:51:33.707Z,20.39
2017-03-08T03:52:43.298Z,20.32
2017-03-08T03:53:52.045Z,20.37
2017-03-08T03:55:01.234Z,20.28
2017-03-08T03:56:10.812Z,20.36
2017-03-08T03:57:20.000Z,20.37
2017-03-08T03:58:28.825Z,20.29
2017-03-08T03:59:38.036Z,20.32
2017-03-08T04:00:47.219Z,20.32
2017-03-08T04:01:56.022Z,20.26
2017-03-08T04:03:05.257Z,20.26
2017-03-08T04:04:14.826Z,20.25
2017-03-08T04:05:23.631Z,20.32
2017-03-08T04:06:32.438Z,20.25
2017-03-08T04:07:42.408Z,20.29
2017-03-08T04:08:52.390Z,20.29
2017-03-08T04:10:01.554Z,20.31
2017-03-08T04:11:10.820Z,20.29
2017-03-08T04:12:19.624Z,20.29
2017-03-08T04:13:29.226Z,20.22
2017-03-08T04:14:38.405Z,20.28
2017-03-08T04:15:47.215Z,20.34
2017-03-08T04:16:56.024Z,20.24
2017-03-08T04:18:05.617Z,20.25
2017-03-08T04:19:15.214Z,20.21
2017-03-08T04:20:24.369Z,20.19
2017-03-08T04:21:33.960Z,20.19
2017-03-08T04:22:42.766Z,20.22
2017-03-08T04:23:51.598Z,20.22
2017-03-08T04:25:00.786Z,20.24
2017-03-08T04:26:09.543Z,20.25
2017-03-08T04:27:18.700Z,20.16
2017-03-08T04:28:27.910Z,20.24
2017-03-08T04:29:37.118Z,20.19
2017-03-08T04:30:46.708Z,20.19
2017-03-08T04:31:56.298Z,20.09
2017-03-08T04:33:05.844Z,20.21
2017-03-08T04:34:15.004Z,20.13
2017-03-08T04:35:24.216Z,20.11
2017-03-08T04:36:33.389Z,20.18
2017-03-08T04:37:43.012Z,20.13
2017-03-08T04:38:52.207Z,20.13
2017-03-08T04:40:01.774Z,20.13
2017-03-08T04:41:10.935Z,20.13
2017-03-08T04:42:19.748Z,20.18
2017-03-08T04:43:29.293Z,20.19
2017-03-08T04:44:38.062Z,20.18
2017-03-08T04:45:46.856Z,20.13
2017-03-08T04:46:56.425Z,20.11
2017-03-08T04:48:05.581Z,20.21
2017-03-08T04:49:14.740Z,20.14
2017-03-08T04:50:23.933Z,20.11
2017-03-08T04:51:33.512Z,20.07
2017-03-08T04:52:42.313Z,20.1
2017-03-08T04:53:51.108Z,20.02
2017-03-08T04:54:59.872Z,20.13
2017-03-08T04:56:09.057Z,20.03
2017-03-08T04:57:17.867Z,20.1
2017-03-08T04:58:26.659Z,20.04
2017-03-08T04:59:35.842Z,20
2017-03-08T05:00:44.667Z,19.99
2017-03-08T05:01:53.485Z,20.02
2017-03-08T05:03:02.637Z,20.03
2017-03-08T05:04:11.433Z,20.02
2017-03-08T05:05:20.194Z,19.99
2017-03-08T05:06:29.711Z,20.06
2017-03-08T05:07:38.866Z,20.02
2017-03-08T05:08:47.659Z,20.06
2017-03-08T05:09:56.474Z,20.06
2017-03-08T05:11:05.692Z,20
2017-03-08T05:12:15.253Z,20.06
2017-03-08T05:13:24.432Z,19.96
2017-03-08T05:14:34.009Z,20.03
2017-03-08T05:15:42.858Z,20
2017-03-08T05:16:51.630Z,20.06
2017-03-08T05:18:00.372Z,20.06
2017-03-08T05:19:09.539Z,19.99
2017-03-08T05:20:19.140Z,19.99
2017-03-08T05:21:29.128Z,20.04
2017-03-08T05:22:38.723Z,20.04
2017-03-08T05:23:47.560Z,19.99
2017-03-08T05:24:56.781Z,20.04
2017-03-08T05:26:05.610Z,20.06
2017-03-08T05:27:14.810Z,20
2017-03-08T05:28:23.982Z,19.96
2017-03-08T05:29:32.792Z,20.06
2017-03-08T05:30:41.561Z,20.03
2017-03-08T05:31:50.725Z,20.07
2017-03-08T05:33:00.160Z,20.02
2017-03-08T05:34:09.730Z,20.03
2017-03-08T05:35:18.912Z,19.99
2017-03-08T05:36:27.699Z,20.04
2017-03-08T05:37:37.265Z,20
2017-03-08T05:38:46.459Z,20.04
2017-03-08T05:39:55.646Z,20.07
2017-03-08T05:41:05.383Z,20.07
2017-03-08T05:42:14.560Z,20.11
2017-03-08T05:43:23.720Z,20.07
2017-03-08T05:44:32.487Z,20.13
2017-03-08T05:45:42.072Z,20.07
2017-03-08T05:46:51.268Z,20.1
2017-03-08T05:48:00.085Z,20.14
2017-03-08T05:49:09.279Z,20.11
2017-03-08T05:50:18.472Z,20.14
2017-03-08T05:51:27.281Z,20.1
2017-03-08T05:52:36.822Z,20.14
2017-03-08T05:53:45.616Z,20.1
2017-03-08T05:54:54.375Z,20.24
2017-03-08T05:56:03.141Z,20.26
2017-03-08T05:57:12.323Z,20.21
2017-03-08T05:58:21.152Z,20.21
2017-03-08T05:59:30.150Z,20.24
2017-03-08T06:00:39.349Z,20.26
2017-03-08T06:01:48.134Z,20.28
2017-03-08T06:02:57.314Z,20.24
2017-03-08T06:04:06.921Z,20.24
2017-03-08T06:05:16.100Z,20.29
2017-03-08T06:06:25.707Z,20.28
2017-03-08T06:07:34.510Z,20.22
2017-03-08T06:08:43.664Z,20.29
2017-03-08T06:09:52.436Z,20.36
2017-03-08T06:11:01.242Z,20.34
2017-03-08T06:12:10.056Z,20.34
2017-03-08T06:13:19.260Z,20.37
2017-03-08T06:14:28.469Z,20.36
2017-03-08T06:15:37.260Z,20.37
2017-03-08T06:16:46.433Z,20.34
2017-03-08T06:17:55.258Z,20.43
2017-03-08T06:19:05.051Z,20.43
2017-03-08T06:20:13.809Z,20.48
2017-03-08T06:21:22.954Z,20.5
2017-03-08T06:22:31.740Z,20.47
2017-03-08T06:23:41.332Z,20.51
2017-03-08T06:24:50.147Z,20.47
2017-03-08T06:25:58.985Z,20.48
2017-03-08T06:27:07.785Z,20.47
2017-03-08T06:28:16.569Z,20.5
2017-03-08T06:29:25.377Z,20.48
2017-03-08T06:30:34.180Z,20.62
2017-03-08T06:31:43.003Z,20.59
2017-03-08T06:32:52.573Z,20.52
2017-03-08T06:34:02.193Z,20.48
2017-03-08T06:35:11.403Z,20.51
2017-03-08T06:36:20.990Z,20.47
2017-03-08T06:37:29.814Z,20.65
2017-03-08T06:38:38.659Z,20.6
2017-03-08T06:39:47.883Z,20.63
2017-03-08T06:40:56.694Z,20.62
2017-03-08T06:42:05.894Z,20.63
2017-03-08T06:43:15.495Z,20.67
2017-03-08T06:44:24.660Z,20.66
2017-03-08T06:45:34.230Z,20.7
2017-03-08T06:46:43.069Z,20.65
2017-03-08T06:47:52.658Z,20.66
2017-03-08T06:49:01.838Z,20.75
2017-03-08T06:50:11.360Z,20.74
2017-03-08T06:51:20.549Z,20.74
2017-03-08T06:52:29.329Z,20.8
2017-03-08T06:53:38.101Z,20.74
2017-03-08T06:54:47.634Z,20.82
2017-03-08T06:55:56.405Z,20.87
2017-03-08T06:57:06.371Z,20.77
2017-03-08T06:58:15.913Z,20.9
2017-03-08T06:59:25.472Z,20.81
2017-03-08T07:00:34.670Z,20.78
2017-03-08T07:01:43.861Z,20.87
2017-03-08T07:02:52.649Z,20.85
2017-03-08T07:04:01.801Z,20.84
2017-03-08T07:05:10.578Z,20.84
2017-03-08T07:06:19.382Z,20.93
2017-03-08T07:07:28.956Z,20.95
2017-03-08T07:08:38.165Z,20.96
2017-03-08T07:09:48.133Z,20.93
2017-03-08T07:10:57.721Z,20.87
2017-03-08T07:12:06.523Z,20.95
2017-03-08T07:13:15.808Z,20.99
2017-03-08T07:14:24.625Z,21.05
2017-03-08T07:15:33.857Z,20.99
2017-03-08T07:16:43.069Z,20.95
2017-03-08T07:17:51.875Z,20.99
2017-03-08T07:19:01.459Z,21.06
2017-03-08T07:20:10.271Z,21.03
2017-03-08T07:21:19.088Z,21.07
2017-03-08T07:22:27.947Z,21.09
2017-03-08T07:23:37.751Z,21.09
2017-03-08T07:24:46.567Z,21.06
2017-03-08T07:25:55.753Z,21.18
2017-03-08T07:27:05.108Z,21.14
2017-03-08T07:28:13.941Z,21.17
2017-03-08T07:29:22.758Z,21.07
2017-03-08T07:30:31.503Z,21.14
2017-03-08T07:31:40.688Z,21.2
2017-03-08T07:32:50.228Z,21.2
2017-03-08T07:33:59.396Z,21.11
2017-03-08T07:35:08.537Z,21.2
2017-03-08T07:36:18.035Z,21.17
2017-03-08T07:37:27.181Z,21.18
2017-03-08T07:38:35.994Z,21.22
2017-03-08T07:39:44.807Z,21.2
2017-03-08T07:40:54.377Z,21.22
2017-03-08T07:42:04.339Z,21.21
2017-03-08T07:43:13.505Z,21.22
2017-03-08T07:44:22.281Z,21.17
2017-03-08T07:45:31.101Z,21.24
2017-03-08T07:46:40.304Z,21.21
2017-03-08T07:47:49.902Z,21.21
2017-03-08T07:48:59.132Z,21.24
2017-03-08T07:50:07.893Z,21.24
2017-03-08T07:51:17.049Z,21.24
2017-03-08T07:52:26.222Z,21.22
2017-03-08T07:53:35.759Z,21.24
2017-03-08T07:54:44.926Z,21.21
2017-03-08T07:55:54.151Z,21.22
2017-03-08T07:57:03.412Z,21.29
2017-03-08T07:58:12.601Z,21.24
2017-03-08T07:59:21.398Z,21.21
2017-03-08T08:00:30.586Z,21.21
2017-03-08T08:01:39.396Z,21.25
2017-03-08T08:02:48.574Z,21.22
2017-03-08T08:03:57.752Z,21.33
2017-03-08T08:05:06.600Z,21.3
2017-03-08T08:06:15.788Z,21.29
2017-03-08T08:07:24.945Z,21.3
2017-03-08T08:08:34.089Z,21.33
2017-03-08T08:09:42.844Z,21.37
2017-03-08T08:10:52.030Z,21.32
2017-03-08T08:12:00.833Z,21.32
2017-03-08T08:13:10.028Z,21.37
2017-03-08T08:14:19.580Z,21.36
2017-03-08T08:15:28.341Z,21.36
2017-03-08T08:16:37.533Z,21.32
2017-03-08T08:17:47.113Z,21.4
2017-03-08T08:18:55.921Z,21.36
2017-03-08T08:20:05.116Z,21.39
2017-03-08T08:21:14.657Z,21.46
2017-03-08T08:22:23.442Z,21.39
2017-03-08T08:23:32.260Z,21.43
2017-03-08T08:24:41.452Z,21.45
2017-03-08T08:25:50.633Z,21.42
2017-03-08T08:27:00.242Z,21.42
2017-03-08T08:28:09.400Z,21.42
2017-03-08T08:29:18.567Z,21.45
2017-03-08T08:30:27.785Z,21.42
2017-03-08T08:31:36.587Z,21.45
2017-03-08T08:32:45.781Z,21.46
2017-03-08T08:33:54.967Z,21.51
2017-03-08T08:35:03.970Z,21.48
2017-03-08T08:36:13.182Z,21.39
2017-03-08T08:37:22.017Z,21.42
2017-03-08T08:38:30.813Z,21.39
2017-03-08T08:39:40.004Z,21.43
2017-03-08T08:40:49.184Z,21.43
2017-03-08T08:41:58.381Z,21.46
2017-03-08T08:43:07.181Z,21.48
2017-03-08T08:44:16.358Z,21.51
2017-03-08T08:45:25.181Z,21.48
2017-03-08T08:46:33.981Z,21.51
2017-03-08T08:47:42.776Z,21.55
2017-03-08T08:48:51.978Z,21.48
2017-03-08T08:50:00.772Z,21.5
2017-03-08T08:51:09.572Z,21.57
2017-03-08T08:52:18.366Z,21.52
2017-03-08T08:53:27.584Z,21.54
2017-03-08T08:54:36.790Z,21.51
2017-03-08T08:55:45.615Z,21.61
2017-03-08T08:56:54.412Z,21.51
2017-03-08T08:58:03.559Z,21.55
2017-03-08T08:59:13.491Z,21.54
2017-03-08T09:00:23.464Z,21.57
2017-03-08T09:01:32.658Z,21.57
2017-03-08T09:02:41.463Z,21.58
2017-03-08T09:03:50.640Z,21.55
2017-03-08T09:04:59.398Z,21.62
2017-03-08T09:06:08.183Z,21.61
2017-03-08T09:07:17.772Z,21.61
2017-03-08T09:08:26.980Z,21.61
2017-03-08T09:09:36.190Z,21.64
2017-03-08T09:10:45.379Z,21.54
2017-03-08T09:11:54.170Z,21.62
2017-03-08T09:13:02.944Z,21.6
2017-03-08T09:14:12.459Z,21.58
2017-03-08T09:15:21.612Z,21.55
2017-03-08T09:16:31.187Z,21.62
2017-03-08T09:17:40.764Z,21.57
2017-03-08T09:18:49.970Z,21.57
2017-03-08T09:19:59.179Z,21.58
2017-03-08T09:21:09.158Z,21.6
2017-03-08T09:22:18.354Z,21.62
2017-03-08T09:23:27.181Z,21.6
2017-03-08T09:24:36.400Z,21.66
2017-03-08T09:25:45.610Z,21.62
2017-03-08T09:26:54.796Z,21.58
2017-03-08T09:28:04.700Z,21.62
2017-03-08T09:29:13.924Z,21.66
2017-03-08T09:30:23.147Z,21.64
2017-03-08T09:31:32.732Z,21.66
2017-03-08T09:32:41.951Z,21.69
2017-03-08T09:33:50.755Z,21.73
2017-03-08T09:34:59.568Z,21.69
2017-03-08T09:36:08.357Z,21.75
2017-03-08T09:37:17.866Z,21.7
2017-03-08T09:38:27.019Z,21.69
2017-03-08T09:39:35.840Z,21.77
2017-03-08T09:40:45.414Z,21.7
2017-03-08T09:41:54.232Z,21.76
2017-03-08T09:43:02.985Z,21.76
2017-03-08T09:44:12.103Z,21.76
2017-03-08T09:45:20.877Z,21.75
2017-03-08T09:46:29.645Z,21.8
2017-03-08T09:47:38.420Z,21.79
2017-03-08T09:48:47.578Z,21.77
2017-03-08T09:49:57.120Z,21.77
2017-03-08T09:51:06.640Z,21.73
2017-03-08T09:52:15.427Z,21.82
2017-03-08T09:53:24.214Z,21.7
2017-03-08T09:54:33.228Z,21.72
2017-03-08T09:55:42.090Z,21.72
2017-03-08T09:56:50.916Z,21.67
2017-03-08T09:58:00.113Z,21.7
2017-03-08T09:59:10.075Z,21.73
2017-03-08T10:00:19.474Z,21.7
2017-03-08T10:01:28.302Z,21.67
2017-03-08T10:02:37.531Z,21.62
2017-03-08T10:03:46.327Z,21.6
2017-03-08T10:04:55.520Z,21.58
2017-03-08T10:06:04.734Z,21.55
2017-03-08T10:07:13.897Z,21.64
2017-03-08T10:08:23.100Z,21.66
2017-03-08T10:09:32.680Z,21.62
2017-03-08T10:10:41.476Z,21.64
2017-03-08T10:11:50.682Z,21.67
2017-03-08T10:13:00.246Z,21.72
2017-03-08T10:14:09.453Z,21.67
2017-03-08T10:15:18.617Z,21.76
2017-03-08T10:16:27.797Z,21.72
2017-03-08T10:17:36.970Z,21.73
2017-03-08T10:18:46.547Z,21.75
2017-03-08T10:19:55.762Z,21.72
2017-03-08T10:21:05.367Z,21.73
2017-03-08T10:22:14.584Z,21.73
2017-03-08T10:23:24.163Z,21.72
2017-03-08T10:24:32.974Z,21.7
2017-03-08T10:25:41.778Z,21.75
2017-03-08T10:26:50.968Z,21.73
2017-03-08T10:28:00.125Z,21.7
2017-03-08T10:29:09.323Z,21.67
2017-03-08T10:30:18.522Z,21.69
2017-03-08T10:31:27.676Z,21.69
2017-03-08T10:32:36.828Z,21.73
2017-03-08T10:33:45.591Z,21.75
2017-03-08T10:34:54.370Z,21.76
2017-03-08T10:36:03.533Z,21.66
2017-03-08T10:37:13.487Z,21.76
2017-03-08T10:38:22.689Z,21.76
2017-03-08T10:39:31.904Z,21.79
2017-03-08T10:40:41.092Z,21.67
2017-03-08T10:41:50.275Z,21.72
2017-03-08T10:42:59.483Z,21.69
2017-03-08T10:44:08.244Z,21.73
2017-03-08T10:45:17.349Z,21.75
2017-03-08T10:46:26.895Z,21.73
2017-03-08T10:47:36.109Z,21.72
2017-03-08T10:48:45.269Z,21.73
2017-03-08T10:49:54.060Z,21.77
2017-03-08T10:51:02.839Z,21.79
2017-03-08T10:52:12.027Z,21.77
2017-03-08T10:53:21.203Z,21.7
2017-03-08T10:54:30.389Z,21.76
2017-03-08T10:55:39.151Z,21.76
2017-03-08T10:56:48.340Z,21.69
2017-03-08T10:57:57.172Z,21.73
2017-03-08T10:59:07.500Z,21.76
2017-03-08T11:00:16.314Z,21.66
2017-03-08T11:01:25.497Z,21.69
2017-03-08T11:02:35.510Z,21.75
2017-03-08T11:03:44.701Z,21.7
2017-03-08T11:04:54.675Z,21.8
2017-03-08T11:06:03.843Z,21.69
2017-03-08T11:07:13.029Z,21.7
2017-03-08T11:08:22.238Z,21.69
2017-03-08T11:09:31.018Z,21.69
2017-03-08T11:10:39.807Z,21.73
2017-03-08T11:11:48.612Z,21.72
2017-03-08T11:12:57.810Z,21.7
2017-03-08T11:14:07.429Z,21.69
2017-03-08T11:15:17.380Z,21.73
2017-03-08T11:16:26.960Z,21.72
2017-03-08T11:17:35.775Z,21.7
2017-03-08T11:18:44.980Z,21.66
2017-03-08T11:19:54.902Z,21.67
2017-03-08T11:21:03.680Z,21.62
2017-03-08T11:22:13.651Z,21.61
2017-03-08T11:23:23.619Z,21.6
2017-03-08T11:24:32.424Z,21.55
2017-03-08T11:25:42.001Z,21.6
2017-03-08T11:26:50.816Z,21.58
2017-03-08T11:28:00.039Z,21.55
2017-03-08T11:29:09.201Z,21.61
2017-03-08T11:30:18.399Z,21.64
2017-03-08T11:31:27.580Z,21.6
2017-03-08T11:32:37.125Z,21.6
2017-03-08T11:33:47.081Z,21.58
2017-03-08T11:34:56.639Z,21.64
2017-03-08T11:36:06.572Z,21.55
2017-03-08T11:37:15.750Z,21.6
2017-03-08T11:38:24.951Z,21.66
2017-03-08T11:39:33.736Z,21.64
2017-03-08T11:40:42.875Z,21.57
2017-03-08T11:41:52.045Z,21.64
2017-03-08T11:43:01.620Z,21.55
2017-03-08T11:44:11.203Z,21.62
2017-03-08T11:45:19.995Z,21.55
2017-03-08T11:46:29.531Z,21.55
2017-03-08T11:47:38.690Z,21.6
2017-03-08T11:48:47.879Z,21.6
2017-03-08T11:49:56.678Z,21.57
2017-03-08T11:51:05.866Z,21.61
2017-03-08T11:52:15.051Z,21.6
2017-03-08T11:53:24.604Z,21.64
2017-03-08T11:54:33.797Z,21.64
2017-03-08T11:55:43.003Z,21.54
2017-03-08T11:56:51.802Z,21.6
2017-03-08T11:58:00.981Z,21.6
2017-03-08T11:59:10.378Z,21.69
2017-03-08T12:00:19.203Z,21.54
2017-03-08T12:01:28.406Z,21.64
2017-03-08T12:02:37.552Z,21.6
2017-03-08T12:03:46.724Z,21.6
2017-03-08T12:04:55.534Z,21.62
2017-03-08T12:06:04.344Z,21.62
2017-03-08T12:07:13.148Z,21.54
2017-03-08T12:08:22.368Z,21.57
2017-03-08T12:09:31.185Z,21.61
2017-03-08T12:10:40.798Z,21.64
2017-03-08T12:11:50.383Z,21.58
2017-03-08T12:12:59.575Z,21.6
2017-03-08T12:14:09.168Z,21.55
2017-03-08T12:15:18.310Z,21.58
2017-03-08T12:16:27.074Z,21.58
2017-03-08T12:17:35.856Z,21.57
2017-03-08T12:18:45.779Z,21.66
2017-03-08T12:19:55.294Z,21.6
2017-03-08T12:21:04.045Z,21.6
2017-03-08T12:22:13.415Z,21.62
2017-03-08T12:23:22.580Z,21.52
2017-03-08T12:24:31.713Z,21.52
2017-03-08T12:25:40.877Z,21.5
2017-03-08T12:26:50.077Z,21.55
2017-03-08T12:27:59.618Z,21.51
2017-03-08T12:29:08.534Z,21.57
2017-03-08T12:30:17.295Z,21.57
2017-03-08T12:31:26.076Z,21.58
2017-03-08T12:32:34.838Z,21.61
2017-03-08T12:33:44.028Z,21.57
2017-03-08T12:34:53.222Z,21.57
2017-03-08T12:36:02.043Z,21.57
2017-03-08T12:37:11.917Z,21.57
2017-03-08T12:38:21.483Z,21.58
2017-03-08T12:39:30.254Z,21.61
2017-03-08T12:40:39.389Z,21.57
2017-03-08T12:41:48.595Z,21.61
2017-03-08T12:42:57.410Z,21.64
2017-03-08T12:44:06.599Z,21.62
2017-03-08T12:45:15.790Z,21.55
2017-03-08T12:46:24.973Z,21.64
2017-03-08T12:47:34.180Z,21.6
2017-03-08T12:48:43.416Z,21.64
2017-03-08T12:49:52.609Z,21.66
2017-03-08T12:51:02.137Z,21.66
2017-03-08T12:52:11.398Z,21.67
2017-03-08T12:53:20.212Z,21.6
2017-03-08T12:54:29.000Z,21.64
2017-03-08T12:55:38.970Z,21.67
2017-03-08T12:56:48.165Z,21.7
2017-03-08T12:57:56.955Z,21.7
2017-03-08T12:59:05.730Z,21.67
2017-03-08T13:00:14.876Z,21.66
2017-03-08T13:01:24.051Z,21.69
2017-03-08T13:02:33.214Z,21.69
2017-03-08T13:03:42.038Z,21.77
2017-03-08T13:04:50.850Z,21.7
2017-03-08T13:05:59.986Z,21.75
2017-03-08T13:07:09.069Z,21.73
2017-03-08T13:08:18.244Z,21.69
2017-03-08T13:09:27.436Z,21.77
2017-03-08T13:10:37.009Z,21.73
2017-03-08T13:11:46.223Z,21.72
2017-03-08T13:12:55.748Z,21.7
2017-03-08T13:14:04.901Z,21.69
2017-03-08T13:15:14.074Z,21.72
2017-03-08T13:16:24.043Z,21.76
2017-03-08T13:17:32.846Z,21.7
2017-03-08T13:18:42.653Z,21.73
2017-03-08T13:19:51.878Z,21.73
2017-03-08T13:21:00.682Z,21.69
2017-03-08T13:22:09.454Z,21.62
2017-03-08T13:23:18.253Z,21.72
2017-03-08T13:24:27.075Z,21.54
2017-03-08T13:25:35.897Z,21.64
2017-03-08T13:26:44.705Z,21.64
2017-03-08T13:27:53.533Z,21.6
2017-03-08T13:29:02.746Z,21.64
2017-03-08T13:30:11.811Z,21.61
2017-03-08T13:31:20.994Z,21.61
2017-03-08T13:32:30.178Z,21.6
2017-03-08T13:33:39.360Z,21.62
2017-03-08T13:34:48.167Z,21.6
2017-03-08T13:35:56.981Z,21.67
2017-03-08T13:37:05.794Z,21.57
2017-03-08T13:38:14.961Z,21.66
2017-03-08T13:39:24.172Z,21.58
2017-03-08T13:40:32.957Z,21.6
2017-03-08T13:41:41.748Z,21.64
2017-03-08T13:42:51.324Z,21.61
2017-03-08T13:44:00.519Z,21.6
2017-03-08T13:45:09.712Z,21.58
2017-03-08T13:46:19.694Z,21.6
2017-03-08T13:47:28.523Z,21.58
2017-03-08T13:48:38.099Z,21.6
2017-03-08T13:49:47.300Z,21.6
2017-03-08T13:50:56.126Z,21.64
2017-03-08T13:52:05.710Z,21.61
2017-03-08T13:53:15.281Z,21.66
2017-03-08T13:54:24.480Z,21.55
2017-03-08T13:55:34.036Z,21.6
2017-03-08T13:56:43.166Z,21.55
2017-03-08T13:57:51.953Z,21.58
2017-03-08T13:59:01.165Z,21.55
2017-03-08T14:00:09.970Z,21.66
2017-03-08T14:01:19.503Z,21.62
2017-03-08T14:02:29.017Z,21.62
2017-03-08T14:03:38.186Z,21.58
2017-03-08T14:04:47.403Z,21.61
2017-03-08T14:05:56.194Z,21.57
2017-03-08T14:07:05.006Z,21.62
2017-03-08T14:08:14.214Z,21.61
2017-03-08T14:09:24.166Z,21.57
2017-03-08T14:10:34.101Z,21.54
2017-03-08T14:11:43.290Z,21.6
2017-03-08T14:12:53.218Z,21.54
2017-03-08T14:14:02.011Z,21.54
2017-03-08T14:15:11.834Z,21.54
2017-03-08T14:16:20.684Z,21.55
2017-03-08T14:17:29.870Z,21.54
2017-03-08T14:18:39.066Z,21.57
2017-03-08T14:19:47.834Z,21.61
2017-03-08T14:20:56.621Z,21.6
2017-03-08T14:22:06.197Z,21.57
2017-03-08T14:23:15.029Z,21.52
2017-03-08T14:24:24.602Z,21.61
2017-03-08T14:26:06.245Z,21.51
2017-03-08T14:27:15.436Z,21.54
2017-03-08T14:28:24.241Z,21.54
2017-03-08T14:29:33.037Z,21.51
2017-03-08T14:30:41.859Z,21.46
2017-03-08T14:31:51.057Z,21.54
2017-03-08T14:33:00.249Z,21.5
2017-03-08T14:34:09.366Z,21.45
2017-03-08T14:35:18.575Z,21.5
2017-03-08T14:36:27.369Z,21.52
2017-03-08T14:37:36.559Z,21.52
2017-03-08T14:38:45.772Z,21.52
2017-03-08T14:39:54.577Z,21.51
2017-03-08T14:41:03.341Z,21.51
2017-03-08T14:42:12.884Z,21.54
2017-03-08T14:43:22.872Z,21.58
2017-03-08T14:44:32.066Z,21.58
2017-03-08T14:45:41.652Z,21.64
2017-03-08T14:46:51.243Z,21.5
2017-03-08T14:48:00.441Z,21.5
2017-03-08T14:49:10.155Z,21.51
2017-03-08T14:50:19.000Z,21.5
2017-03-08T14:51:27.776Z,21.46
2017-03-08T14:52:36.497Z,21.52
2017-03-08T14:53:45.708Z,21.45
2017-03-08T14:54:55.291Z,21.51